<?xml version="1.0" encoding="UTF-8" standalone="no" ?>
<gpx xmlns="http://www.topografix.com/GPX/1/1" xmlns:xsi="http://www.w3.org/2001/XMLSchema-instance" xsi:schemaLocation="http://www.topografix.com/GPX/1/1 http://www.topografix.com/GPX/1/1/gpx.xsd" version="1.1" creator="VisuGPX - https://www.visugpx.com">
  <metadata>
    <name>2022 10 16 randonnée autour des Salins de Frontignan</name>
    <desc><![CDATA[2022 10 16 randonnée autour des Salins de Frontignan]]></desc>
  </metadata>
  <trk>
    <name><![CDATA[2022 10 16 randonnée autour des Salins de Frontignan]]></name>
    <trkseg>
      <trkpt lat="43.44542" lon="3.75976">
        <ele>52</ele>
        <time>2022-10-16T16:02:19+02:00</time>
      </trkpt>
      <trkpt lat="43.44542" lon="3.76008">
        <ele>47</ele>
        <time>2022-10-16T16:02:40+02:00</time>
      </trkpt>
      <trkpt lat="43.44529" lon="3.76034">
        <ele>46</ele>
        <time>2022-10-16T16:02:58+02:00</time>
      </trkpt>
      <trkpt lat="43.4453" lon="3.76067">
        <ele>40</ele>
        <time>2022-10-16T16:03:19+02:00</time>
      </trkpt>
      <trkpt lat="43.44522" lon="3.76096">
        <ele>44</ele>
        <time>2022-10-16T16:03:59+02:00</time>
      </trkpt>
      <trkpt lat="43.4452" lon="3.76128">
        <ele>43</ele>
        <time>2022-10-16T16:04:18+02:00</time>
      </trkpt>
      <trkpt lat="43.44521" lon="3.7616">
        <ele>41</ele>
        <time>2022-10-16T16:04:39+02:00</time>
      </trkpt>
      <trkpt lat="43.4452" lon="3.76192">
        <ele>41</ele>
        <time>2022-10-16T16:04:57+02:00</time>
      </trkpt>
      <trkpt lat="43.44518" lon="3.76223">
        <ele>40</ele>
        <time>2022-10-16T16:05:16+02:00</time>
      </trkpt>
      <trkpt lat="43.44516" lon="3.76255">
        <ele>38</ele>
        <time>2022-10-16T16:05:35+02:00</time>
      </trkpt>
      <trkpt lat="43.44516" lon="3.76287">
        <ele>39</ele>
        <time>2022-10-16T16:05:55+02:00</time>
      </trkpt>
      <trkpt lat="43.44516" lon="3.76319">
        <ele>40</ele>
        <time>2022-10-16T16:06:16+02:00</time>
      </trkpt>
      <trkpt lat="43.44514" lon="3.76351">
        <ele>45</ele>
        <time>2022-10-16T16:06:33+02:00</time>
      </trkpt>
      <trkpt lat="43.44533" lon="3.76368">
        <ele>44</ele>
        <time>2022-10-16T16:06:55+02:00</time>
      </trkpt>
      <trkpt lat="43.44555" lon="3.7636">
        <ele>45</ele>
        <time>2022-10-16T16:07:15+02:00</time>
      </trkpt>
      <trkpt lat="43.44577" lon="3.7635">
        <ele>46</ele>
        <time>2022-10-16T16:07:34+02:00</time>
      </trkpt>
      <trkpt lat="43.44598" lon="3.76338">
        <ele>47</ele>
        <time>2022-10-16T16:07:55+02:00</time>
      </trkpt>
      <trkpt lat="43.44617" lon="3.76355">
        <ele>45</ele>
        <time>2022-10-16T16:08:14+02:00</time>
      </trkpt>
      <trkpt lat="43.44631" lon="3.76381">
        <ele>40</ele>
        <time>2022-10-16T16:08:35+02:00</time>
      </trkpt>
      <trkpt lat="43.44644" lon="3.76408">
        <ele>36</ele>
        <time>2022-10-16T16:08:55+02:00</time>
      </trkpt>
      <trkpt lat="43.44654" lon="3.76436">
        <ele>36</ele>
        <time>2022-10-16T16:09:15+02:00</time>
      </trkpt>
      <trkpt lat="43.44664" lon="3.76464">
        <ele>35</ele>
        <time>2022-10-16T16:09:35+02:00</time>
      </trkpt>
      <trkpt lat="43.44675" lon="3.76491">
        <ele>35</ele>
        <time>2022-10-16T16:09:57+02:00</time>
      </trkpt>
      <trkpt lat="43.44685" lon="3.76521">
        <ele>35</ele>
        <time>2022-10-16T16:10:15+02:00</time>
      </trkpt>
      <trkpt lat="43.44706" lon="3.76576">
        <ele>32</ele>
        <time>2022-10-16T16:10:52+02:00</time>
      </trkpt>
      <trkpt lat="43.44717" lon="3.76604">
        <ele>33</ele>
        <time>2022-10-16T16:11:12+02:00</time>
      </trkpt>
      <trkpt lat="43.44728" lon="3.76632">
        <ele>33</ele>
        <time>2022-10-16T16:11:32+02:00</time>
      </trkpt>
      <trkpt lat="43.44738" lon="3.7666">
        <ele>32</ele>
        <time>2022-10-16T16:11:52+02:00</time>
      </trkpt>
      <trkpt lat="43.44748" lon="3.76689">
        <ele>33</ele>
        <time>2022-10-16T16:12:09+02:00</time>
      </trkpt>
      <trkpt lat="43.4476" lon="3.76717">
        <ele>34</ele>
        <time>2022-10-16T16:12:33+02:00</time>
      </trkpt>
      <trkpt lat="43.4477" lon="3.76745">
        <ele>33</ele>
        <time>2022-10-16T16:12:49+02:00</time>
      </trkpt>
      <trkpt lat="43.44782" lon="3.7677">
        <ele>31</ele>
        <time>2022-10-16T16:13:06+02:00</time>
      </trkpt>
      <trkpt lat="43.44794" lon="3.76799">
        <ele>27</ele>
        <time>2022-10-16T16:13:28+02:00</time>
      </trkpt>
      <trkpt lat="43.44803" lon="3.7683">
        <ele>29</ele>
        <time>2022-10-16T16:13:48+02:00</time>
      </trkpt>
      <trkpt lat="43.44814" lon="3.76858">
        <ele>25</ele>
        <time>2022-10-16T16:14:07+02:00</time>
      </trkpt>
      <trkpt lat="43.44827" lon="3.76887">
        <ele>26</ele>
        <time>2022-10-16T16:14:27+02:00</time>
      </trkpt>
      <trkpt lat="43.44837" lon="3.76916">
        <ele>28</ele>
        <time>2022-10-16T16:14:45+02:00</time>
      </trkpt>
      <trkpt lat="43.44846" lon="3.76945">
        <ele>29</ele>
        <time>2022-10-16T16:15:05+02:00</time>
      </trkpt>
      <trkpt lat="43.44856" lon="3.76974">
        <ele>30</ele>
        <time>2022-10-16T16:15:23+02:00</time>
      </trkpt>
      <trkpt lat="43.44867" lon="3.77003">
        <ele>30</ele>
        <time>2022-10-16T16:15:44+02:00</time>
      </trkpt>
      <trkpt lat="43.44876" lon="3.77032">
        <ele>32</ele>
        <time>2022-10-16T16:16:01+02:00</time>
      </trkpt>
      <trkpt lat="43.44889" lon="3.77059">
        <ele>30</ele>
        <time>2022-10-16T16:16:20+02:00</time>
      </trkpt>
      <trkpt lat="43.44897" lon="3.77088">
        <ele>32</ele>
        <time>2022-10-16T16:16:42+02:00</time>
      </trkpt>
      <trkpt lat="43.44907" lon="3.77116">
        <ele>33</ele>
        <time>2022-10-16T16:17:02+02:00</time>
      </trkpt>
      <trkpt lat="43.4492" lon="3.77143">
        <ele>31</ele>
        <time>2022-10-16T16:17:20+02:00</time>
      </trkpt>
      <trkpt lat="43.44931" lon="3.77172">
        <ele>33</ele>
        <time>2022-10-16T16:17:39+02:00</time>
      </trkpt>
      <trkpt lat="43.44942" lon="3.77199">
        <ele>34</ele>
        <time>2022-10-16T16:17:59+02:00</time>
      </trkpt>
      <trkpt lat="43.4495" lon="3.77229">
        <ele>35</ele>
        <time>2022-10-16T16:18:19+02:00</time>
      </trkpt>
      <trkpt lat="43.44961" lon="3.77257">
        <ele>34</ele>
        <time>2022-10-16T16:18:38+02:00</time>
      </trkpt>
      <trkpt lat="43.4497" lon="3.77285">
        <ele>36</ele>
        <time>2022-10-16T16:18:56+02:00</time>
      </trkpt>
      <trkpt lat="43.44983" lon="3.77312">
        <ele>33</ele>
        <time>2022-10-16T16:19:18+02:00</time>
      </trkpt>
      <trkpt lat="43.45003" lon="3.77367">
        <ele>34</ele>
        <time>2022-10-16T16:19:57+02:00</time>
      </trkpt>
      <trkpt lat="43.45014" lon="3.77395">
        <ele>34</ele>
        <time>2022-10-16T16:20:16+02:00</time>
      </trkpt>
      <trkpt lat="43.45024" lon="3.77422">
        <ele>35</ele>
        <time>2022-10-16T16:20:34+02:00</time>
      </trkpt>
      <trkpt lat="43.45035" lon="3.7745">
        <ele>35</ele>
        <time>2022-10-16T16:20:53+02:00</time>
      </trkpt>
      <trkpt lat="43.45046" lon="3.77478">
        <ele>36</ele>
        <time>2022-10-16T16:21:14+02:00</time>
      </trkpt>
      <trkpt lat="43.45056" lon="3.77507">
        <ele>36</ele>
        <time>2022-10-16T16:21:32+02:00</time>
      </trkpt>
      <trkpt lat="43.45066" lon="3.77535">
        <ele>37</ele>
        <time>2022-10-16T16:21:51+02:00</time>
      </trkpt>
      <trkpt lat="43.45076" lon="3.77562">
        <ele>38</ele>
        <time>2022-10-16T16:22:09+02:00</time>
      </trkpt>
      <trkpt lat="43.45087" lon="3.77591">
        <ele>37</ele>
        <time>2022-10-16T16:22:31+02:00</time>
      </trkpt>
      <trkpt lat="43.45099" lon="3.77618">
        <ele>36</ele>
        <time>2022-10-16T16:22:52+02:00</time>
      </trkpt>
      <trkpt lat="43.4511" lon="3.77646">
        <ele>36</ele>
        <time>2022-10-16T16:23:10+02:00</time>
      </trkpt>
      <trkpt lat="43.4513" lon="3.77702">
        <ele>36</ele>
        <time>2022-10-16T16:23:48+02:00</time>
      </trkpt>
      <trkpt lat="43.4514" lon="3.77732">
        <ele>37</ele>
        <time>2022-10-16T16:24:07+02:00</time>
      </trkpt>
      <trkpt lat="43.45154" lon="3.77758">
        <ele>36</ele>
        <time>2022-10-16T16:24:26+02:00</time>
      </trkpt>
      <trkpt lat="43.45169" lon="3.77782">
        <ele>33</ele>
        <time>2022-10-16T16:24:46+02:00</time>
      </trkpt>
      <trkpt lat="43.45178" lon="3.77811">
        <ele>36</ele>
        <time>2022-10-16T16:25:04+02:00</time>
      </trkpt>
      <trkpt lat="43.45192" lon="3.77837">
        <ele>37</ele>
        <time>2022-10-16T16:25:25+02:00</time>
      </trkpt>
      <trkpt lat="43.45209" lon="3.77858">
        <ele>36</ele>
        <time>2022-10-16T16:25:46+02:00</time>
      </trkpt>
      <trkpt lat="43.45232" lon="3.77864">
        <ele>40</ele>
        <time>2022-10-16T16:26:07+02:00</time>
      </trkpt>
      <trkpt lat="43.45255" lon="3.7787">
        <ele>41</ele>
        <time>2022-10-16T16:26:32+02:00</time>
      </trkpt>
      <trkpt lat="43.45278" lon="3.77869">
        <ele>39</ele>
        <time>2022-10-16T16:26:50+02:00</time>
      </trkpt>
      <trkpt lat="43.45301" lon="3.77872">
        <ele>42</ele>
        <time>2022-10-16T16:27:09+02:00</time>
      </trkpt>
      <trkpt lat="43.45324" lon="3.77863">
        <ele>43</ele>
        <time>2022-10-16T16:27:34+02:00</time>
      </trkpt>
      <trkpt lat="43.45343" lon="3.77843">
        <ele>41</ele>
        <time>2022-10-16T16:27:54+02:00</time>
      </trkpt>
      <trkpt lat="43.45361" lon="3.77823">
        <ele>43</ele>
        <time>2022-10-16T16:28:14+02:00</time>
      </trkpt>
      <trkpt lat="43.45377" lon="3.77801">
        <ele>44</ele>
        <time>2022-10-16T16:28:36+02:00</time>
      </trkpt>
      <trkpt lat="43.45388" lon="3.77772">
        <ele>44</ele>
        <time>2022-10-16T16:28:55+02:00</time>
      </trkpt>
      <trkpt lat="43.45407" lon="3.77754">
        <ele>43</ele>
        <time>2022-10-16T16:29:14+02:00</time>
      </trkpt>
      <trkpt lat="43.45447" lon="3.77725">
        <ele>43</ele>
        <time>2022-10-16T16:29:53+02:00</time>
      </trkpt>
      <trkpt lat="43.4547" lon="3.77722">
        <ele>40</ele>
        <time>2022-10-16T16:30:11+02:00</time>
      </trkpt>
      <trkpt lat="43.45492" lon="3.77711">
        <ele>40</ele>
        <time>2022-10-16T16:30:35+02:00</time>
      </trkpt>
      <trkpt lat="43.45514" lon="3.77722">
        <ele>39</ele>
        <time>2022-10-16T16:30:51+02:00</time>
      </trkpt>
      <trkpt lat="43.45534" lon="3.77739">
        <ele>30</ele>
        <time>2022-10-16T16:31:11+02:00</time>
      </trkpt>
      <trkpt lat="43.4555" lon="3.77762">
        <ele>31</ele>
        <time>2022-10-16T16:31:32+02:00</time>
      </trkpt>
      <trkpt lat="43.45567" lon="3.77783">
        <ele>32</ele>
        <time>2022-10-16T16:31:51+02:00</time>
      </trkpt>
      <trkpt lat="43.45582" lon="3.77807">
        <ele>30</ele>
        <time>2022-10-16T16:32:15+02:00</time>
      </trkpt>
      <trkpt lat="43.45598" lon="3.77831">
        <ele>26</ele>
        <time>2022-10-16T16:32:34+02:00</time>
      </trkpt>
      <trkpt lat="43.45615" lon="3.77853">
        <ele>32</ele>
        <time>2022-10-16T16:32:56+02:00</time>
      </trkpt>
      <trkpt lat="43.45631" lon="3.7783">
        <ele>44</ele>
        <time>2022-10-16T16:33:37+02:00</time>
      </trkpt>
      <trkpt lat="43.45644" lon="3.77802">
        <ele>44</ele>
        <time>2022-10-16T16:33:59+02:00</time>
      </trkpt>
      <trkpt lat="43.4566" lon="3.77781">
        <ele>42</ele>
        <time>2022-10-16T16:34:17+02:00</time>
      </trkpt>
      <trkpt lat="43.4567" lon="3.77752">
        <ele>44</ele>
        <time>2022-10-16T16:34:40+02:00</time>
      </trkpt>
      <trkpt lat="43.45677" lon="3.77722">
        <ele>44</ele>
        <time>2022-10-16T16:34:59+02:00</time>
      </trkpt>
      <trkpt lat="43.45683" lon="3.77691">
        <ele>44</ele>
        <time>2022-10-16T16:35:19+02:00</time>
      </trkpt>
      <trkpt lat="43.45687" lon="3.7766">
        <ele>45</ele>
        <time>2022-10-16T16:35:40+02:00</time>
      </trkpt>
      <trkpt lat="43.4569" lon="3.77628">
        <ele>44</ele>
        <time>2022-10-16T16:36:00+02:00</time>
      </trkpt>
      <trkpt lat="43.45691" lon="3.77596">
        <ele>45</ele>
        <time>2022-10-16T16:36:20+02:00</time>
      </trkpt>
      <trkpt lat="43.45701" lon="3.77567">
        <ele>44</ele>
        <time>2022-10-16T16:36:40+02:00</time>
      </trkpt>
      <trkpt lat="43.45711" lon="3.77539">
        <ele>40</ele>
        <time>2022-10-16T16:37:01+02:00</time>
      </trkpt>
      <trkpt lat="43.4573" lon="3.77522">
        <ele>42</ele>
        <time>2022-10-16T16:37:18+02:00</time>
      </trkpt>
      <trkpt lat="43.45736" lon="3.77491">
        <ele>45</ele>
        <time>2022-10-16T16:37:41+02:00</time>
      </trkpt>
      <trkpt lat="43.4573" lon="3.7746">
        <ele>48</ele>
        <time>2022-10-16T16:38:01+02:00</time>
      </trkpt>
      <trkpt lat="43.45722" lon="3.77431">
        <ele>48</ele>
        <time>2022-10-16T16:38:20+02:00</time>
      </trkpt>
      <trkpt lat="43.45713" lon="3.77403">
        <ele>48</ele>
        <time>2022-10-16T16:38:41+02:00</time>
      </trkpt>
      <trkpt lat="43.45703" lon="3.77375">
        <ele>48</ele>
        <time>2022-10-16T16:39:01+02:00</time>
      </trkpt>
      <trkpt lat="43.45696" lon="3.77343">
        <ele>43</ele>
        <time>2022-10-16T16:39:20+02:00</time>
      </trkpt>
      <trkpt lat="43.45684" lon="3.77315">
        <ele>46</ele>
        <time>2022-10-16T16:39:38+02:00</time>
      </trkpt>
      <trkpt lat="43.45679" lon="3.77284">
        <ele>47</ele>
        <time>2022-10-16T16:40:01+02:00</time>
      </trkpt>
      <trkpt lat="43.45689" lon="3.77255">
        <ele>46</ele>
        <time>2022-10-16T16:40:22+02:00</time>
      </trkpt>
      <trkpt lat="43.45704" lon="3.77229">
        <ele>45</ele>
        <time>2022-10-16T16:40:42+02:00</time>
      </trkpt>
      <trkpt lat="43.45718" lon="3.77204">
        <ele>45</ele>
        <time>2022-10-16T16:41:02+02:00</time>
      </trkpt>
      <trkpt lat="43.45733" lon="3.77179">
        <ele>43</ele>
        <time>2022-10-16T16:41:23+02:00</time>
      </trkpt>
      <trkpt lat="43.4575" lon="3.77158">
        <ele>43</ele>
        <time>2022-10-16T16:41:39+02:00</time>
      </trkpt>
      <trkpt lat="43.45767" lon="3.77136">
        <ele>43</ele>
        <time>2022-10-16T16:42:00+02:00</time>
      </trkpt>
      <trkpt lat="43.45781" lon="3.77111">
        <ele>41</ele>
        <time>2022-10-16T16:42:20+02:00</time>
      </trkpt>
      <trkpt lat="43.45799" lon="3.77092">
        <ele>40</ele>
        <time>2022-10-16T16:42:37+02:00</time>
      </trkpt>
      <trkpt lat="43.45816" lon="3.77071">
        <ele>42</ele>
        <time>2022-10-16T16:42:54+02:00</time>
      </trkpt>
      <trkpt lat="43.45831" lon="3.77047">
        <ele>42</ele>
        <time>2022-10-16T16:43:12+02:00</time>
      </trkpt>
      <trkpt lat="43.45848" lon="3.77026">
        <ele>44</ele>
        <time>2022-10-16T16:43:31+02:00</time>
      </trkpt>
      <trkpt lat="43.45862" lon="3.77002">
        <ele>43</ele>
        <time>2022-10-16T16:43:49+02:00</time>
      </trkpt>
      <trkpt lat="43.45876" lon="3.76977">
        <ele>42</ele>
        <time>2022-10-16T16:44:11+02:00</time>
      </trkpt>
      <trkpt lat="43.45895" lon="3.76959">
        <ele>42</ele>
        <time>2022-10-16T16:44:30+02:00</time>
      </trkpt>
      <trkpt lat="43.45911" lon="3.76936">
        <ele>41</ele>
        <time>2022-10-16T16:44:49+02:00</time>
      </trkpt>
      <trkpt lat="43.45928" lon="3.76915">
        <ele>42</ele>
        <time>2022-10-16T16:45:07+02:00</time>
      </trkpt>
      <trkpt lat="43.4595" lon="3.76908">
        <ele>41</ele>
        <time>2022-10-16T16:45:28+02:00</time>
      </trkpt>
      <trkpt lat="43.45973" lon="3.76904">
        <ele>41</ele>
        <time>2022-10-16T16:45:45+02:00</time>
      </trkpt>
      <trkpt lat="43.45995" lon="3.76904">
        <ele>36</ele>
        <time>2022-10-16T16:46:09+02:00</time>
      </trkpt>
      <trkpt lat="43.46018" lon="3.769">
        <ele>37</ele>
        <time>2022-10-16T16:46:27+02:00</time>
      </trkpt>
      <trkpt lat="43.46041" lon="3.76895">
        <ele>38</ele>
        <time>2022-10-16T16:46:45+02:00</time>
      </trkpt>
      <trkpt lat="43.46064" lon="3.7689">
        <ele>37</ele>
        <time>2022-10-16T16:47:05+02:00</time>
      </trkpt>
      <trkpt lat="43.46087" lon="3.76885">
        <ele>37</ele>
        <time>2022-10-16T16:47:26+02:00</time>
      </trkpt>
      <trkpt lat="43.46109" lon="3.76874">
        <ele>35</ele>
        <time>2022-10-16T16:47:46+02:00</time>
      </trkpt>
      <trkpt lat="43.46131" lon="3.7687">
        <ele>36</ele>
        <time>2022-10-16T16:48:02+02:00</time>
      </trkpt>
      <trkpt lat="43.46154" lon="3.76864">
        <ele>38</ele>
        <time>2022-10-16T16:48:22+02:00</time>
      </trkpt>
      <trkpt lat="43.46155" lon="3.76833">
        <ele>42</ele>
        <time>2022-10-16T16:49:01+02:00</time>
      </trkpt>
      <trkpt lat="43.46132" lon="3.76822">
        <ele>42</ele>
        <time>2022-10-16T16:49:22+02:00</time>
      </trkpt>
      <trkpt lat="43.46109" lon="3.76814">
        <ele>42</ele>
        <time>2022-10-16T16:49:42+02:00</time>
      </trkpt>
      <trkpt lat="43.46089" lon="3.768">
        <ele>41</ele>
        <time>2022-10-16T16:50:01+02:00</time>
      </trkpt>
      <trkpt lat="43.46069" lon="3.76785">
        <ele>40</ele>
        <time>2022-10-16T16:50:22+02:00</time>
      </trkpt>
      <trkpt lat="43.46049" lon="3.7677">
        <ele>39</ele>
        <time>2022-10-16T16:50:43+02:00</time>
      </trkpt>
      <trkpt lat="43.46028" lon="3.76753">
        <ele>39</ele>
        <time>2022-10-16T16:51:03+02:00</time>
      </trkpt>
      <trkpt lat="43.46009" lon="3.76736">
        <ele>42</ele>
        <time>2022-10-16T16:51:18+02:00</time>
      </trkpt>
      <trkpt lat="43.45988" lon="3.76723">
        <ele>43</ele>
        <time>2022-10-16T16:51:35+02:00</time>
      </trkpt>
      <trkpt lat="43.45965" lon="3.76709">
        <ele>41</ele>
        <time>2022-10-16T16:51:58+02:00</time>
      </trkpt>
      <trkpt lat="43.45944" lon="3.76694">
        <ele>40</ele>
        <time>2022-10-16T16:52:18+02:00</time>
      </trkpt>
      <trkpt lat="43.45924" lon="3.76678">
        <ele>38</ele>
        <time>2022-10-16T16:52:38+02:00</time>
      </trkpt>
      <trkpt lat="43.45903" lon="3.76663">
        <ele>39</ele>
        <time>2022-10-16T16:52:58+02:00</time>
      </trkpt>
      <trkpt lat="43.45883" lon="3.76648">
        <ele>40</ele>
        <time>2022-10-16T16:53:17+02:00</time>
      </trkpt>
      <trkpt lat="43.45863" lon="3.76633">
        <ele>38</ele>
        <time>2022-10-16T16:53:37+02:00</time>
      </trkpt>
      <trkpt lat="43.45842" lon="3.76617">
        <ele>37</ele>
        <time>2022-10-16T16:53:56+02:00</time>
      </trkpt>
      <trkpt lat="43.45821" lon="3.76604">
        <ele>38</ele>
        <time>2022-10-16T16:54:18+02:00</time>
      </trkpt>
      <trkpt lat="43.45802" lon="3.76587">
        <ele>39</ele>
        <time>2022-10-16T16:54:38+02:00</time>
      </trkpt>
      <trkpt lat="43.4578" lon="3.76574">
        <ele>40</ele>
        <time>2022-10-16T16:54:59+02:00</time>
      </trkpt>
      <trkpt lat="43.4576" lon="3.76557">
        <ele>41</ele>
        <time>2022-10-16T16:55:17+02:00</time>
      </trkpt>
      <trkpt lat="43.4574" lon="3.76544">
        <ele>39</ele>
        <time>2022-10-16T16:55:38+02:00</time>
      </trkpt>
      <trkpt lat="43.45717" lon="3.76536">
        <ele>41</ele>
        <time>2022-10-16T16:55:57+02:00</time>
      </trkpt>
      <trkpt lat="43.45694" lon="3.76535">
        <ele>42</ele>
        <time>2022-10-16T16:56:17+02:00</time>
      </trkpt>
      <trkpt lat="43.45672" lon="3.76539">
        <ele>43</ele>
        <time>2022-10-16T16:56:37+02:00</time>
      </trkpt>
      <trkpt lat="43.45649" lon="3.7654">
        <ele>44</ele>
        <time>2022-10-16T16:56:54+02:00</time>
      </trkpt>
      <trkpt lat="43.45626" lon="3.76539">
        <ele>42</ele>
        <time>2022-10-16T16:57:15+02:00</time>
      </trkpt>
      <trkpt lat="43.45604" lon="3.76532">
        <ele>42</ele>
        <time>2022-10-16T16:57:32+02:00</time>
      </trkpt>
      <trkpt lat="43.45582" lon="3.76519">
        <ele>44</ele>
        <time>2022-10-16T16:57:52+02:00</time>
      </trkpt>
      <trkpt lat="43.4556" lon="3.76512">
        <ele>45</ele>
        <time>2022-10-16T16:58:11+02:00</time>
      </trkpt>
      <trkpt lat="43.45537" lon="3.76507">
        <ele>44</ele>
        <time>2022-10-16T16:58:30+02:00</time>
      </trkpt>
      <trkpt lat="43.45515" lon="3.76499">
        <ele>44</ele>
        <time>2022-10-16T16:58:49+02:00</time>
      </trkpt>
      <trkpt lat="43.45492" lon="3.76496">
        <ele>44</ele>
        <time>2022-10-16T16:59:09+02:00</time>
      </trkpt>
      <trkpt lat="43.45469" lon="3.76493">
        <ele>45</ele>
        <time>2022-10-16T16:59:29+02:00</time>
      </trkpt>
      <trkpt lat="43.45445" lon="3.76493">
        <ele>45</ele>
        <time>2022-10-16T16:59:49+02:00</time>
      </trkpt>
      <trkpt lat="43.45422" lon="3.76493">
        <ele>43</ele>
        <time>2022-10-16T17:00:08+02:00</time>
      </trkpt>
      <trkpt lat="43.45399" lon="3.76493">
        <ele>41</ele>
        <time>2022-10-16T17:00:29+02:00</time>
      </trkpt>
      <trkpt lat="43.45377" lon="3.76484">
        <ele>42</ele>
        <time>2022-10-16T17:00:49+02:00</time>
      </trkpt>
      <trkpt lat="43.45354" lon="3.76481">
        <ele>43</ele>
        <time>2022-10-16T17:01:08+02:00</time>
      </trkpt>
      <trkpt lat="43.45331" lon="3.76474">
        <ele>42</ele>
        <time>2022-10-16T17:01:26+02:00</time>
      </trkpt>
      <trkpt lat="43.45311" lon="3.76459">
        <ele>44</ele>
        <time>2022-10-16T17:01:42+02:00</time>
      </trkpt>
      <trkpt lat="43.45289" lon="3.76451">
        <ele>42</ele>
        <time>2022-10-16T17:02:02+02:00</time>
      </trkpt>
      <trkpt lat="43.45269" lon="3.76434">
        <ele>40</ele>
        <time>2022-10-16T17:02:23+02:00</time>
      </trkpt>
      <trkpt lat="43.4525" lon="3.76415">
        <ele>38</ele>
        <time>2022-10-16T17:02:41+02:00</time>
      </trkpt>
      <trkpt lat="43.45229" lon="3.76401">
        <ele>38</ele>
        <time>2022-10-16T17:03:00+02:00</time>
      </trkpt>
      <trkpt lat="43.45212" lon="3.7638">
        <ele>40</ele>
        <time>2022-10-16T17:03:19+02:00</time>
      </trkpt>
      <trkpt lat="43.45194" lon="3.76361">
        <ele>40</ele>
        <time>2022-10-16T17:03:40+02:00</time>
      </trkpt>
      <trkpt lat="43.45175" lon="3.76342">
        <ele>38</ele>
        <time>2022-10-16T17:03:59+02:00</time>
      </trkpt>
      <trkpt lat="43.45158" lon="3.7632">
        <ele>37</ele>
        <time>2022-10-16T17:04:17+02:00</time>
      </trkpt>
      <trkpt lat="43.4514" lon="3.763">
        <ele>38</ele>
        <time>2022-10-16T17:04:37+02:00</time>
      </trkpt>
      <trkpt lat="43.45125" lon="3.76276">
        <ele>39</ele>
        <time>2022-10-16T17:04:55+02:00</time>
      </trkpt>
      <trkpt lat="43.45108" lon="3.76254">
        <ele>42</ele>
        <time>2022-10-16T17:05:17+02:00</time>
      </trkpt>
      <trkpt lat="43.4509" lon="3.76235">
        <ele>43</ele>
        <time>2022-10-16T17:05:35+02:00</time>
      </trkpt>
      <trkpt lat="43.45071" lon="3.76217">
        <ele>44</ele>
        <time>2022-10-16T17:05:54+02:00</time>
      </trkpt>
      <trkpt lat="43.45053" lon="3.76198">
        <ele>42</ele>
        <time>2022-10-16T17:06:13+02:00</time>
      </trkpt>
      <trkpt lat="43.45034" lon="3.76178">
        <ele>44</ele>
        <time>2022-10-16T17:06:33+02:00</time>
      </trkpt>
      <trkpt lat="43.45017" lon="3.76157">
        <ele>43</ele>
        <time>2022-10-16T17:06:51+02:00</time>
      </trkpt>
      <trkpt lat="43.45004" lon="3.76129">
        <ele>44</ele>
        <time>2022-10-16T17:07:11+02:00</time>
      </trkpt>
      <trkpt lat="43.45013" lon="3.761">
        <ele>44</ele>
        <time>2022-10-16T17:07:33+02:00</time>
      </trkpt>
      <trkpt lat="43.45007" lon="3.7607">
        <ele>45</ele>
        <time>2022-10-16T17:07:56+02:00</time>
      </trkpt>
      <trkpt lat="43.44986" lon="3.76057">
        <ele>44</ele>
        <time>2022-10-16T17:08:21+02:00</time>
      </trkpt>
      <trkpt lat="43.44964" lon="3.76048">
        <ele>41</ele>
        <time>2022-10-16T17:08:41+02:00</time>
      </trkpt>
      <trkpt lat="43.44941" lon="3.76041">
        <ele>43</ele>
        <time>2022-10-16T17:09:01+02:00</time>
      </trkpt>
      <trkpt lat="43.44918" lon="3.76038">
        <ele>37</ele>
        <time>2022-10-16T17:09:24+02:00</time>
      </trkpt>
      <trkpt lat="43.44898" lon="3.76022">
        <ele>38</ele>
        <time>2022-10-16T17:09:40+02:00</time>
      </trkpt>
      <trkpt lat="43.44876" lon="3.76016">
        <ele>41</ele>
        <time>2022-10-16T17:09:58+02:00</time>
      </trkpt>
      <trkpt lat="43.44855" lon="3.76005">
        <ele>53</ele>
        <time>2022-10-16T17:10:11+02:00</time>
      </trkpt>
      <trkpt lat="43.44832" lon="3.76002">
        <ele>53</ele>
        <time>2022-10-16T17:10:35+02:00</time>
      </trkpt>
      <trkpt lat="43.4481" lon="3.75996">
        <ele>51</ele>
        <time>2022-10-16T17:10:55+02:00</time>
      </trkpt>
      <trkpt lat="43.44787" lon="3.75987">
        <ele>48</ele>
        <time>2022-10-16T17:11:16+02:00</time>
      </trkpt>
      <trkpt lat="43.44765" lon="3.7598">
        <ele>51</ele>
        <time>2022-10-16T17:11:33+02:00</time>
      </trkpt>
      <trkpt lat="43.44742" lon="3.75976">
        <ele>47</ele>
        <time>2022-10-16T17:11:55+02:00</time>
      </trkpt>
      <trkpt lat="43.44719" lon="3.75969">
        <ele>40</ele>
        <time>2022-10-16T17:12:16+02:00</time>
      </trkpt>
      <trkpt lat="43.44696" lon="3.75967">
        <ele>41</ele>
        <time>2022-10-16T17:12:37+02:00</time>
      </trkpt>
      <trkpt lat="43.44672" lon="3.75965">
        <ele>42</ele>
        <time>2022-10-16T17:12:55+02:00</time>
      </trkpt>
      <trkpt lat="43.4465" lon="3.75953">
        <ele>39</ele>
        <time>2022-10-16T17:13:15+02:00</time>
      </trkpt>
      <trkpt lat="43.44627" lon="3.75956">
        <ele>40</ele>
        <time>2022-10-16T17:13:34+02:00</time>
      </trkpt>
      <trkpt lat="43.44605" lon="3.75947">
        <ele>39</ele>
        <time>2022-10-16T17:13:57+02:00</time>
      </trkpt>
      <trkpt lat="43.44581" lon="3.75944">
        <ele>35</ele>
        <time>2022-10-16T17:14:13+02:00</time>
      </trkpt>
      <trkpt lat="43.44559" lon="3.75934">
        <ele>41</ele>
        <time>2022-10-16T17:14:27+02:00</time>
      </trkpt>
    </trkseg>
  </trk>
</gpx>